sensor_id;sensor_type;location;lat;lon;timestamp;P1;durP1;ratioP1;P2;durP2;ratioP2
5776;SDS011;2914;42.668;23.346;2023-04-01T00:00:53;13.53;;;8.87;;
5776;SDS011;2914;42.668;23.346;2023-04-01T00:03:23;19.70;;;10.37;;
5776;SDS011;2914;42.668;23.346;2023-04-01T00:05:53;22.00;;;12.67;;
5776;SDS011;2914;42.668;23.346;2023-04-01T00:08:24;36.40;;;16.63;;
5776;SDS011;2914;42.668;23.346;2023-04-01T00:10:53;46.00;;;18.00;;
5776;SDS011;2914;42.668;23.346;2023-04-01T00:13:23;32.33;;;16.80;;
5776;SDS011;2914;42.668;23.346;2023-04-01T00:15:53;33.47;;;19.17;;
5776;SDS011;2914;42.668;23.346;2023-04-01T00:18:23;35.10;;;17.93;;
5776;SDS011;2914;42.668;23.346;2023-04-01T00:20:52;35.97;;;17.47;;
5776;SDS011;2914;42.668;23.346;2023-04-01T00:23:21;25.17;;;14.00;;
5776;SDS011;2914;42.668;23.346;2023-04-01T00:25:50;42.10;;;15.07;;
5776;SDS011;2914;42.668;23.346;2023-04-01T00:28:20;35.53;;;15.10;;
5776;SDS011;2914;42.668;23.346;2023-04-01T00:30:48;30.47;;;14.07;;
5776;SDS011;2914;42.668;23.346;2023-04-01T00:33:18;26.57;;;13.97;;
5776;SDS011;2914;42.668;23.346;2023-04-01T00:35:47;25.10;;;13.50;;
5776;SDS011;2914;42.668;23.346;2023-04-01T00:40:56;25.70;;;12.90;;
5776;SDS011;2914;42.668;23.346;2023-04-01T00:43:25;23.03;;;13.13;;
5776;SDS011;2914;42.668;23.346;2023-04-01T00:45:54;20.87;;;13.00;;
5776;SDS011;2914;42.668;23.346;2023-04-01T00:48:25;29.03;;;11.40;;
5776;SDS011;2914;42.668;23.346;2023-04-01T00:50:58;46.73;;;11.60;;
5776;SDS011;2914;42.668;23.346;2023-04-01T00:53:30;30.07;;;11.50;;
5776;SDS011;2914;42.668;23.346;2023-04-01T00:56:03;17.67;;;11.57;;
5776;SDS011;2914;42.668;23.346;2023-04-01T00:58:34;21.03;;;10.90;;
5776;SDS011;2914;42.668;23.346;2023-04-01T01:01:06;14.97;;;10.50;;
5776;SDS011;2914;42.668;23.346;2023-04-01T01:03:37;20.37;;;11.27;;
5776;SDS011;2914;42.668;23.346;2023-04-01T01:06:18;18.80;;;11.20;;
5776;SDS011;2914;42.668;23.346;2023-04-01T01:09:03;28.03;;;10.30;;
5776;SDS011;2914;42.668;23.346;2023-04-01T01:11:41;15.13;;;10.70;;
5776;SDS011;2914;42.668;23.346;2023-04-01T01:14:16;17.63;;;10.33;;
5776;SDS011;2914;42.668;23.346;2023-04-01T01:16:50;21.47;;;10.50;;
5776;SDS011;2914;42.668;23.346;2023-04-01T01:19:32;21.37;;;9.60;;
5776;SDS011;2914;42.668;23.346;2023-04-01T01:22:09;20.17;;;10.10;;
5776;SDS011;2914;42.668;23.346;2023-04-01T01:25:02;13.97;;;9.13;;
5776;SDS011;2914;42.668;23.346;2023-04-01T01:27:37;16.90;;;7.90;;
5776;SDS011;2914;42.668;23.346;2023-04-01T01:30:11;20.33;;;8.73;;
5776;SDS011;2914;42.668;23.346;2023-04-01T01:33:06;10.87;;;7.87;;
5776;SDS011;2914;42.668;23.346;2023-04-01T01:35:41;15.63;;;8.30;;
5776;SDS011;2914;42.668;23.346;2023-04-01T01:38:13;13.13;;;9.27;;
5776;SDS011;2914;42.668;23.346;2023-04-01T01:40:45;22.97;;;9.27;;
5776;SDS011;2914;42.668;23.346;2023-04-01T01:43:21;10.10;;;6.90;;
5776;SDS011;2914;42.668;23.346;2023-04-01T01:45:53;14.60;;;8.00;;
5776;SDS011;2914;42.668;23.346;2023-04-01T01:48:24;13.27;;;6.93;;
5776;SDS011;2914;42.668;23.346;2023-04-01T01:50:56;18.37;;;6.50;;
5776;SDS011;2914;42.668;23.346;2023-04-01T01:53:27;7.67;;;6.40;;
5776;SDS011;2914;42.668;23.346;2023-04-01T01:55:56;10.33;;;5.90;;
5776;SDS011;2914;42.668;23.346;2023-04-01T01:58:27;10.40;;;5.90;;
5776;SDS011;2914;42.668;23.346;2023-04-01T02:00:57;10.00;;;6.40;;
5776;SDS011;2914;42.668;23.346;2023-04-01T02:03:29;14.13;;;5.80;;
5776;SDS011;2914;42.668;23.346;2023-04-01T02:06:01;14.50;;;5.20;;
5776;SDS011;2914;42.668;23.346;2023-04-01T02:08:34;10.63;;;6.07;;
5776;SDS011;2914;42.668;23.346;2023-04-01T02:11:06;6.07;;;5.17;;
5776;SDS011;2914;42.668;23.346;2023-04-01T02:13:39;7.50;;;5.67;;
5776;SDS011;2914;42.668;23.346;2023-04-01T02:16:11;12.53;;;5.20;;
5776;SDS011;2914;42.668;23.346;2023-04-01T02:18:44;9.93;;;5.27;;
5776;SDS011;2914;42.668;23.346;2023-04-01T02:21:16;4.30;;;3.87;;
5776;SDS011;2914;42.668;23.346;2023-04-01T02:23:48;11.00;;;5.30;;
5776;SDS011;2914;42.668;23.346;2023-04-01T02:26:19;11.80;;;6.13;;
5776;SDS011;2914;42.668;23.346;2023-04-01T02:28:50;13.00;;;6.10;;
5776;SDS011;2914;42.668;23.346;2023-04-01T02:31:20;6.13;;;4.57;;
5776;SDS011;2914;42.668;23.346;2023-04-01T02:33:50;9.63;;;5.87;;
5776;SDS011;2914;42.668;23.346;2023-04-01T02:36:21;16.03;;;7.10;;
5776;SDS011;2914;42.668;23.346;2023-04-01T02:41:27;10.53;;;5.60;;
5776;SDS011;2914;42.668;23.346;2023-04-01T02:43:56;13.60;;;5.77;;
5776;SDS011;2914;42.668;23.346;2023-04-01T02:46:40;7.03;;;5.27;;
5776;SDS011;2914;42.668;23.346;2023-04-01T02:49:09;8.50;;;4.50;;
5776;SDS011;2914;42.668;23.346;2023-04-01T02:51:38;7.00;;;4.70;;
5776;SDS011;2914;42.668;23.346;2023-04-01T02:54:07;13.07;;;7.27;;
5776;SDS011;2914;42.668;23.346;2023-04-01T02:56:36;11.97;;;6.43;;
5776;SDS011;2914;42.668;23.346;2023-04-01T02:59:05;7.20;;;4.90;;
5776;SDS011;2914;42.668;23.346;2023-04-01T03:01:34;26.23;;;5.73;;
5776;SDS011;2914;42.668;23.346;2023-04-01T03:04:03;11.63;;;6.00;;
5776;SDS011;2914;42.668;23.346;2023-04-01T03:06:33;13.43;;;6.37;;
5776;SDS011;2914;42.668;23.346;2023-04-01T03:09:02;16.80;;;8.77;;
5776;SDS011;2914;42.668;23.346;2023-04-01T03:11:31;9.37;;;6.77;;
5776;SDS011;2914;42.668;23.346;2023-04-01T03:14:00;9.07;;;6.50;;
5776;SDS011;2914;42.668;23.346;2023-04-01T03:16:29;16.27;;;7.87;;
5776;SDS011;2914;42.668;23.346;2023-04-01T03:18:58;14.87;;;7.60;;
5776;SDS011;2914;42.668;23.346;2023-04-01T03:21:28;16.40;;;8.17;;
5776;SDS011;2914;42.668;23.346;2023-04-01T03:23:57;11.30;;;8.20;;
5776;SDS011;2914;42.668;23.346;2023-04-01T03:26:26;13.70;;;7.80;;
5776;SDS011;2914;42.668;23.346;2023-04-01T03:28:55;17.73;;;9.07;;
5776;SDS011;2914;42.668;23.346;2023-04-01T03:31:24;20.40;;;9.80;;
5776;SDS011;2914;42.668;23.346;2023-04-01T03:33:53;14.50;;;9.30;;
5776;SDS011;2914;42.668;23.346;2023-04-01T03:38:59;18.90;;;9.63;;
5776;SDS011;2914;42.668;23.346;2023-04-01T03:41:29;22.87;;;9.73;;
5776;SDS011;2914;42.668;23.346;2023-04-01T03:43:58;15.70;;;8.97;;
5776;SDS011;2914;42.668;23.346;2023-04-01T03:46:27;24.30;;;9.10;;
5776;SDS011;2914;42.668;23.346;2023-04-01T03:48:56;15.37;;;9.50;;
5776;SDS011;2914;42.668;23.346;2023-04-01T03:51:25;15.83;;;8.87;;
5776;SDS011;2914;42.668;23.346;2023-04-01T03:53:54;14.10;;;9.20;;
5776;SDS011;2914;42.668;23.346;2023-04-01T03:56:23;19.90;;;9.60;;
5776;SDS011;2914;42.668;23.346;2023-04-01T03:58:52;29.43;;;10.10;;
5776;SDS011;2914;42.668;23.346;2023-04-01T04:01:21;18.93;;;10.07;;
5776;SDS011;2914;42.668;23.346;2023-04-01T04:03:51;14.40;;;8.70;;
5776;SDS011;2914;42.668;23.346;2023-04-01T04:06:20;24.03;;;12.03;;
5776;SDS011;2914;42.668;23.346;2023-04-01T04:08:50;23.33;;;11.47;;
5776;SDS011;2914;42.668;23.346;2023-04-01T04:11:19;32.10;;;12.93;;
5776;SDS011;2914;42.668;23.346;2023-04-01T04:13:49;19.80;;;13.23;;
5776;SDS011;2914;42.668;23.346;2023-04-01T04:16:19;26.57;;;12.73;;
5776;SDS011;2914;42.668;23.346;2023-04-01T04:18:48;15.90;;;11.40;;
5776;SDS011;2914;42.668;23.346;2023-04-01T04:21:17;25.23;;;9.33;;
5776;SDS011;2914;42.668;23.346;2023-04-01T04:23:46;23.40;;;9.40;;
5776;SDS011;2914;42.668;23.346;2023-04-01T04:26:16;15.80;;;8.23;;
5776;SDS011;2914;42.668;23.346;2023-04-01T04:28:45;21.00;;;10.20;;
5776;SDS011;2914;42.668;23.346;2023-04-01T04:31:18;28.20;;;10.60;;
5776;SDS011;2914;42.668;23.346;2023-04-01T04:33:48;21.10;;;8.43;;
5776;SDS011;2914;42.668;23.346;2023-04-01T04:36:17;25.97;;;8.40;;
5776;SDS011;2914;42.668;23.346;2023-04-01T04:38:47;13.53;;;8.60;;
5776;SDS011;2914;42.668;23.346;2023-04-01T04:41:17;19.17;;;8.80;;
5776;SDS011;2914;42.668;23.346;2023-04-01T04:43:51;16.70;;;8.20;;
5776;SDS011;2914;42.668;23.346;2023-04-01T04:46:21;20.50;;;7.97;;
5776;SDS011;2914;42.668;23.346;2023-04-01T04:49:05;20.63;;;8.17;;
5776;SDS011;2914;42.668;23.346;2023-04-01T04:51:35;15.90;;;8.87;;
5776;SDS011;2914;42.668;23.346;2023-04-01T04:54:05;17.53;;;9.07;;
5776;SDS011;2914;42.668;23.346;2023-04-01T04:56:34;13.97;;;8.07;;
5776;SDS011;2914;42.668;23.346;2023-04-01T04:59:18;13.57;;;7.73;;
5776;SDS011;2914;42.668;23.346;2023-04-01T05:01:47;11.63;;;8.07;;
5776;SDS011;2914;42.668;23.346;2023-04-01T05:04:20;15.40;;;8.00;;
5776;SDS011;2914;42.668;23.346;2023-04-01T05:06:54;21.70;;;9.90;;
5776;SDS011;2914;42.668;23.346;2023-04-01T05:09:23;16.37;;;9.00;;
5776;SDS011;2914;42.668;23.346;2023-04-01T05:14:47;13.13;;;7.30;;
5776;SDS011;2914;42.668;23.346;2023-04-01T05:17:19;16.67;;;7.90;;
5776;SDS011;2914;42.668;23.346;2023-04-01T05:19:48;16.07;;;8.67;;
5776;SDS011;2914;42.668;23.346;2023-04-01T05:22:32;12.80;;;8.30;;
5776;SDS011;2914;42.668;23.346;2023-04-01T05:25:01;17.67;;;8.40;;
5776;SDS011;2914;42.668;23.346;2023-04-01T05:27:30;12.90;;;8.30;;
5776;SDS011;2914;42.668;23.346;2023-04-01T05:29:59;13.80;;;7.70;;
5776;SDS011;2914;42.668;23.346;2023-04-01T05:32:30;15.57;;;7.00;;
5776;SDS011;2914;42.668;23.346;2023-04-01T05:34:59;12.07;;;6.80;;
5776;SDS011;2914;42.668;23.346;2023-04-01T05:37:28;17.83;;;8.37;;
5776;SDS011;2914;42.668;23.346;2023-04-01T05:39:58;9.63;;;6.57;;
5776;SDS011;2914;42.668;23.346;2023-04-01T05:42:27;14.30;;;7.53;;
5776;SDS011;2914;42.668;23.346;2023-04-01T05:44:56;14.47;;;8.07;;
5776;SDS011;2914;42.668;23.346;2023-04-01T05:47:26;13.73;;;7.00;;
5776;SDS011;2914;42.668;23.346;2023-04-01T05:49:56;10.53;;;7.20;;
5776;SDS011;2914;42.668;23.346;2023-04-01T05:52:25;24.80;;;7.97;;
5776;SDS011;2914;42.668;23.346;2023-04-01T05:54:54;12.43;;;7.20;;
5776;SDS011;2914;42.668;23.346;2023-04-01T05:57:24;23.53;;;7.40;;
5776;SDS011;2914;42.668;23.346;2023-04-01T05:59:54;11.07;;;6.37;;
5776;SDS011;2914;42.668;23.346;2023-04-01T06:02:23;7.57;;;6.10;;
5776;SDS011;2914;42.668;23.346;2023-04-01T06:04:53;8.93;;;5.80;;
5776;SDS011;2914;42.668;23.346;2023-04-01T06:07:24;18.73;;;5.97;;
5776;SDS011;2914;42.668;23.346;2023-04-01T06:09:55;13.03;;;5.90;;
5776;SDS011;2914;42.668;23.346;2023-04-01T06:15:34;17.03;;;6.03;;
5776;SDS011;2914;42.668;23.346;2023-04-01T06:18:23;8.23;;;5.50;;
5776;SDS011;2914;42.668;23.346;2023-04-01T06:20:53;8.00;;;5.23;;
5776;SDS011;2914;42.668;23.346;2023-04-01T06:23:30;6.83;;;5.43;;
5776;SDS011;2914;42.668;23.346;2023-04-01T06:26:06;6.77;;;4.57;;
5776;SDS011;2914;42.668;23.346;2023-04-01T06:35:11;13.37;;;5.40;;
5776;SDS011;2914;42.668;23.346;2023-04-01T06:37:50;14.80;;;5.90;;
5776;SDS011;2914;42.668;23.346;2023-04-01T06:40:38;12.60;;;6.53;;
5776;SDS011;2914;42.668;23.346;2023-04-01T06:43:19;16.80;;;7.03;;
5776;SDS011;2914;42.668;23.346;2023-04-01T06:45:52;8.50;;;7.10;;
5776;SDS011;2914;42.668;23.346;2023-04-01T06:51:19;16.70;;;6.87;;
5776;SDS011;2914;42.668;23.346;2023-04-01T06:53:52;14.13;;;6.47;;
5776;SDS011;2914;42.668;23.346;2023-04-01T06:56:24;8.63;;;6.30;;
5776;SDS011;2914;42.668;23.346;2023-04-01T06:58:56;11.90;;;6.97;;
5776;SDS011;2914;42.668;23.346;2023-04-01T07:01:29;8.90;;;6.93;;
5776;SDS011;2914;42.668;23.346;2023-04-01T07:04:01;6.63;;;6.00;;
5776;SDS011;2914;42.668;23.346;2023-04-01T07:06:35;15.30;;;6.57;;
5776;SDS011;2914;42.668;23.346;2023-04-01T07:09:08;9.67;;;6.23;;
5776;SDS011;2914;42.668;23.346;2023-04-01T07:11:38;11.90;;;6.40;;
5776;SDS011;2914;42.668;23.346;2023-04-01T07:14:12;17.93;;;6.73;;
5776;SDS011;2914;42.668;23.346;2023-04-01T07:16:44;10.70;;;6.23;;
5776;SDS011;2914;42.668;23.346;2023-04-01T07:19:18;8.30;;;6.53;;
5776;SDS011;2914;42.668;23.346;2023-04-01T07:21:51;20.13;;;6.53;;
5776;SDS011;2914;42.668;23.346;2023-04-01T07:24:32;10.50;;;6.50;;
5776;SDS011;2914;42.668;23.346;2023-04-01T07:27:01;11.93;;;6.17;;
5776;SDS011;2914;42.668;23.346;2023-04-01T07:29:32;22.53;;;6.60;;
5776;SDS011;2914;42.668;23.346;2023-04-01T07:32:14;9.47;;;6.00;;
5776;SDS011;2914;42.668;23.346;2023-04-01T07:34:53;13.97;;;6.60;;
5776;SDS011;2914;42.668;23.346;2023-04-01T07:37:34;18.63;;;6.40;;
5776;SDS011;2914;42.668;23.346;2023-04-01T07:40:22;10.30;;;6.57;;
5776;SDS011;2914;42.668;23.346;2023-04-01T07:42:59;13.03;;;6.13;;
5776;SDS011;2914;42.668;23.346;2023-04-01T07:45:33;15.50;;;6.03;;
5776;SDS011;2914;42.668;23.346;2023-04-01T07:48:11;11.13;;;6.20;;
5776;SDS011;2914;42.668;23.346;2023-04-01T07:50:46;6.77;;;6.03;;
5776;SDS011;2914;42.668;23.346;2023-04-01T07:53:18;8.23;;;5.70;;
5776;SDS011;2914;42.668;23.346;2023-04-01T07:55:50;9.27;;;6.20;;
5776;SDS011;2914;42.668;23.346;2023-04-01T07:58:24;9.50;;;5.67;;
5776;SDS011;2914;42.668;23.346;2023-04-01T08:00:56;15.03;;;6.13;;
5776;SDS011;2914;42.668;23.346;2023-04-01T08:03:33;29.47;;;6.50;;
5776;SDS011;2914;42.668;23.346;2023-04-01T08:06:06;13.87;;;6.07;;
5776;SDS011;2914;42.668;23.346;2023-04-01T08:08:43;10.77;;;6.20;;
5776;SDS011;2914;42.668;23.346;2023-04-01T08:11:20;11.97;;;6.20;;
5776;SDS011;2914;42.668;23.346;2023-04-01T08:13:53;16.40;;;7.47;;
5776;SDS011;2914;42.668;23.346;2023-04-01T08:16:28;15.73;;;5.90;;
5776;SDS011;2914;42.668;23.346;2023-04-01T08:18:59;12.10;;;5.73;;
5776;SDS011;2914;42.668;23.346;2023-04-01T08:21:31;18.10;;;5.37;;
5776;SDS011;2914;42.668;23.346;2023-04-01T08:24:06;8.67;;;5.70;;
5776;SDS011;2914;42.668;23.346;2023-04-01T08:26:40;12.40;;;6.17;;
5776;SDS011;2914;42.668;23.346;2023-04-01T08:29:11;10.97;;;4.90;;
5776;SDS011;2914;42.668;23.346;2023-04-01T08:31:45;17.60;;;5.83;;
5776;SDS011;2914;42.668;23.346;2023-04-01T08:34:17;12.77;;;5.13;;
5776;SDS011;2914;42.668;23.346;2023-04-01T08:36:49;12.90;;;5.80;;
5776;SDS011;2914;42.668;23.346;2023-04-01T08:39:23;10.53;;;5.50;;
5776;SDS011;2914;42.668;23.346;2023-04-01T08:41:59;10.83;;;5.70;;
5776;SDS011;2914;42.668;23.346;2023-04-01T08:47:58;9.10;;;6.80;;
5776;SDS011;2914;42.668;23.346;2023-04-01T08:50:58;19.00;;;5.60;;
5776;SDS011;2914;42.668;23.346;2023-04-01T08:53:43;11.97;;;6.20;;
5776;SDS011;2914;42.668;23.346;2023-04-01T08:56:20;14.40;;;5.30;;
5776;SDS011;2914;42.668;23.346;2023-04-01T08:58:59;13.43;;;6.30;;
5776;SDS011;2914;42.668;23.346;2023-04-01T09:01:57;14.07;;;5.10;;
5776;SDS011;2914;42.668;23.346;2023-04-01T09:04:35;14.40;;;4.87;;
5776;SDS011;2914;42.668;23.346;2023-04-01T09:07:18;8.17;;;4.83;;
5776;SDS011;2914;42.668;23.346;2023-04-01T09:10:13;6.00;;;5.23;;
5776;SDS011;2914;42.668;23.346;2023-04-01T09:13:00;26.37;;;4.60;;
5776;SDS011;2914;42.668;23.346;2023-04-01T09:15:47;9.10;;;4.57;;
5776;SDS011;2914;42.668;23.346;2023-04-01T09:18:45;8.53;;;3.97;;
5776;SDS011;2914;42.668;23.346;2023-04-01T09:21:24;10.97;;;5.50;;
5776;SDS011;2914;42.668;23.346;2023-04-01T09:24:06;8.20;;;4.10;;
5776;SDS011;2914;42.668;23.346;2023-04-01T09:27:03;12.43;;;4.57;;
5776;SDS011;2914;42.668;23.346;2023-04-01T09:29:42;11.43;;;4.13;;
5776;SDS011;2914;42.668;23.346;2023-04-01T09:32:34;15.60;;;4.23;;
5776;SDS011;2914;42.668;23.346;2023-04-01T09:35:22;8.00;;;3.47;;
5776;SDS011;2914;42.668;23.346;2023-04-01T09:37:57;14.00;;;3.87;;
5776;SDS011;2914;42.668;23.346;2023-04-01T09:40:33;4.03;;;3.57;;
5776;SDS011;2914;42.668;23.346;2023-04-01T09:43:22;8.80;;;4.10;;
5776;SDS011;2914;42.668;23.346;2023-04-01T09:46:11;8.23;;;4.00;;
5776;SDS011;2914;42.668;23.346;2023-04-01T09:48:50;5.97;;;3.60;;
5776;SDS011;2914;42.668;23.346;2023-04-01T09:51:32;6.07;;;3.33;;
5776;SDS011;2914;42.668;23.346;2023-04-01T09:54:23;5.53;;;3.40;;
5776;SDS011;2914;42.668;23.346;2023-04-01T10:00:13;13.10;;;3.50;;
5776;SDS011;2914;42.668;23.346;2023-04-01T10:06:16;8.97;;;3.10;;
5776;SDS011;2914;42.668;23.346;2023-04-01T10:12:22;12.40;;;3.33;;
5776;SDS011;2914;42.668;23.346;2023-04-01T10:18:33;9.13;;;3.60;;
5776;SDS011;2914;42.668;23.346;2023-04-01T10:24:53;5.53;;;4.40;;
5776;SDS011;2914;42.668;23.346;2023-04-01T10:28:07;14.90;;;4.03;;
5776;SDS011;2914;42.668;23.346;2023-04-01T10:34:06;10.00;;;3.50;;
5776;SDS011;2914;42.668;23.346;2023-04-01T10:36:55;5.73;;;4.17;;
5776;SDS011;2914;42.668;23.346;2023-04-01T10:39:39;5.23;;;3.83;;
5776;SDS011;2914;42.668;23.346;2023-04-01T10:45:43;14.93;;;5.83;;
5776;SDS011;2914;42.668;23.346;2023-04-01T10:51:48;5.73;;;4.27;;
5776;SDS011;2914;42.668;23.346;2023-04-01T10:54:40;8.53;;;4.40;;
5776;SDS011;2914;42.668;23.346;2023-04-01T11:00:55;6.67;;;4.23;;
5776;SDS011;2914;42.668;23.346;2023-04-01T11:03:42;10.30;;;4.50;;
5776;SDS011;2914;42.668;23.346;2023-04-01T11:06:31;9.10;;;4.30;;
5776;SDS011;2914;42.668;23.346;2023-04-01T11:12:46;3.93;;;2.53;;
5776;SDS011;2914;42.668;23.346;2023-04-01T11:15:44;15.33;;;4.33;;
5776;SDS011;2914;42.668;23.346;2023-04-01T11:18:50;7.07;;;4.87;;
5776;SDS011;2914;42.668;23.346;2023-04-01T11:27:48;16.70;;;2.47;;
5776;SDS011;2914;42.668;23.346;2023-04-01T11:30:46;5.00;;;2.57;;
5776;SDS011;2914;42.668;23.346;2023-04-01T11:33:29;8.27;;;2.93;;
5776;SDS011;2914;42.668;23.346;2023-04-01T11:36:07;5.60;;;2.17;;
5776;SDS011;2914;42.668;23.346;2023-04-01T11:38:49;5.50;;;2.87;;
5776;SDS011;2914;42.668;23.346;2023-04-01T11:41:41;7.43;;;2.73;;
5776;SDS011;2914;42.668;23.346;2023-04-01T11:44:16;7.47;;;2.50;;
5776;SDS011;2914;42.668;23.346;2023-04-01T11:46:49;4.40;;;2.43;;
5776;SDS011;2914;42.668;23.346;2023-04-01T11:49:35;9.50;;;2.93;;
5776;SDS011;2914;42.668;23.346;2023-04-01T11:52:11;20.70;;;2.60;;
5776;SDS011;2914;42.668;23.346;2023-04-01T11:58:09;9.60;;;2.83;;
5776;SDS011;2914;42.668;23.346;2023-04-01T12:00:54;8.40;;;3.33;;
5776;SDS011;2914;42.668;23.346;2023-04-01T12:03:56;11.00;;;3.60;;
5776;SDS011;2914;42.668;23.346;2023-04-01T12:06:32;6.40;;;3.10;;
5776;SDS011;2914;42.668;23.346;2023-04-01T12:09:07;5.70;;;2.93;;
5776;SDS011;2914;42.668;23.346;2023-04-01T12:11:38;8.27;;;3.30;;
5776;SDS011;2914;42.668;23.346;2023-04-01T12:14:13;7.23;;;3.10;;
5776;SDS011;2914;42.668;23.346;2023-04-01T12:16:55;12.00;;;3.27;;
5776;SDS011;2914;42.668;23.346;2023-04-01T12:19:31;8.60;;;4.23;;
5776;SDS011;2914;42.668;23.346;2023-04-01T12:22:08;6.07;;;3.73;;
5776;SDS011;2914;42.668;23.346;2023-04-01T12:24:47;6.30;;;3.80;;
5776;SDS011;2914;42.668;23.346;2023-04-01T12:30:21;11.93;;;4.00;;
5776;SDS011;2914;42.668;23.346;2023-04-01T12:36:20;6.27;;;4.40;;
5776;SDS011;2914;42.668;23.346;2023-04-01T12:42:17;8.70;;;4.90;;
5776;SDS011;2914;42.668;23.346;2023-04-01T12:44:57;10.97;;;5.20;;
5776;SDS011;2914;42.668;23.346;2023-04-01T12:47:49;11.23;;;6.20;;
5776;SDS011;2914;42.668;23.346;2023-04-01T12:53:57;7.70;;;4.43;;
5776;SDS011;2914;42.668;23.346;2023-04-01T12:56:38;8.40;;;4.33;;
5776;SDS011;2914;42.668;23.346;2023-04-01T13:02:27;6.60;;;5.00;;
5776;SDS011;2914;42.668;23.346;2023-04-01T13:05:18;6.83;;;4.17;;
5776;SDS011;2914;42.668;23.346;2023-04-01T13:07:53;4.93;;;3.60;;
5776;SDS011;2914;42.668;23.346;2023-04-01T13:10:37;19.43;;;4.40;;
5776;SDS011;2914;42.668;23.346;2023-04-01T13:15:55;4.10;;;3.80;;
5776;SDS011;2914;42.668;23.346;2023-04-01T13:18:36;8.60;;;4.37;;
5776;SDS011;2914;42.668;23.346;2023-04-01T13:21:10;4.03;;;3.40;;
5776;SDS011;2914;42.668;23.346;2023-04-01T13:23:51;7.33;;;3.20;;
5776;SDS011;2914;42.668;23.346;2023-04-01T13:26:26;5.10;;;4.10;;
5776;SDS011;2914;42.668;23.346;2023-04-01T13:29:12;6.43;;;4.00;;
5776;SDS011;2914;42.668;23.346;2023-04-01T13:31:47;7.00;;;3.80;;
5776;SDS011;2914;42.668;23.346;2023-04-01T13:34:27;4.33;;;4.00;;
5776;SDS011;2914;42.668;23.346;2023-04-01T13:37:08;6.60;;;4.33;;
5776;SDS011;2914;42.668;23.346;2023-04-01T13:43:07;4.10;;;3.17;;
5776;SDS011;2914;42.668;23.346;2023-04-01T13:45:46;5.40;;;3.23;;
5776;SDS011;2914;42.668;23.346;2023-04-01T13:48:28;4.00;;;3.60;;
5776;SDS011;2914;42.668;23.346;2023-04-01T13:51:05;5.77;;;3.40;;
5776;SDS011;2914;42.668;23.346;2023-04-01T13:53:59;9.33;;;4.23;;
5776;SDS011;2914;42.668;23.346;2023-04-01T13:56:39;7.53;;;3.70;;
5776;SDS011;2914;42.668;23.346;2023-04-01T13:59:38;8.50;;;3.90;;
5776;SDS011;2914;42.668;23.346;2023-04-01T14:02:21;3.83;;;3.47;;
5776;SDS011;2914;42.668;23.346;2023-04-01T14:05:00;6.20;;;3.70;;
5776;SDS011;2914;42.668;23.346;2023-04-01T14:07:41;8.03;;;3.97;;
5776;SDS011;2914;42.668;23.346;2023-04-01T14:12:58;5.87;;;3.67;;
5776;SDS011;2914;42.668;23.346;2023-04-01T14:15:36;19.17;;;5.57;;
5776;SDS011;2914;42.668;23.346;2023-04-01T14:18:19;13.80;;;7.70;;
5776;SDS011;2914;42.668;23.346;2023-04-01T14:24:06;15.30;;;8.03;;
5776;SDS011;2914;42.668;23.346;2023-04-01T14:26:56;10.93;;;8.03;;
5776;SDS011;2914;42.668;23.346;2023-04-01T14:30:01;11.10;;;6.50;;
5776;SDS011;2914;42.668;23.346;2023-04-01T14:32:51;8.10;;;5.23;;
5776;SDS011;2914;42.668;23.346;2023-04-01T14:35:37;7.77;;;5.60;;
5776;SDS011;2914;42.668;23.346;2023-04-01T14:38:17;11.80;;;5.77;;
5776;SDS011;2914;42.668;23.346;2023-04-01T14:41:02;7.43;;;5.50;;
5776;SDS011;2914;42.668;23.346;2023-04-01T14:43:56;5.23;;;4.67;;
5776;SDS011;2914;42.668;23.346;2023-04-01T14:50:06;5.10;;;4.73;;
5776;SDS011;2914;42.668;23.346;2023-04-01T14:52:38;6.13;;;4.70;;
5776;SDS011;2914;42.668;23.346;2023-04-01T14:58:19;9.70;;;4.90;;
5776;SDS011;2914;42.668;23.346;2023-04-01T15:01:00;5.97;;;4.20;;
5776;SDS011;2914;42.668;23.346;2023-04-01T15:03:38;10.23;;;4.10;;
5776;SDS011;2914;42.668;23.346;2023-04-01T15:06:27;6.87;;;4.47;;
5776;SDS011;2914;42.668;23.346;2023-04-01T15:09:11;3.90;;;3.70;;
5776;SDS011;2914;42.668;23.346;2023-04-01T15:11:47;4.50;;;3.70;;
5776;SDS011;2914;42.668;23.346;2023-04-01T15:14:26;6.10;;;3.23;;
5776;SDS011;2914;42.668;23.346;2023-04-01T15:17:04;5.10;;;4.60;;
5776;SDS011;2914;42.668;23.346;2023-04-01T15:19:48;6.43;;;4.10;;
5776;SDS011;2914;42.668;23.346;2023-04-01T15:22:28;6.10;;;4.00;;
5776;SDS011;2914;42.668;23.346;2023-04-01T15:25:15;4.07;;;3.70;;
5776;SDS011;2914;42.668;23.346;2023-04-01T15:28:02;4.80;;;3.77;;
5776;SDS011;2914;42.668;23.346;2023-04-01T15:30:34;7.70;;;4.30;;
5776;SDS011;2914;42.668;23.346;2023-04-01T15:33:19;10.40;;;6.67;;
5776;SDS011;2914;42.668;23.346;2023-04-01T15:35:57;13.20;;;8.80;;
5776;SDS011;2914;42.668;23.346;2023-04-01T15:38:33;5.63;;;5.17;;
5776;SDS011;2914;42.668;23.346;2023-04-01T15:41:09;4.53;;;4.13;;
5776;SDS011;2914;42.668;23.346;2023-04-01T15:43:42;5.70;;;5.20;;
5776;SDS011;2914;42.668;23.346;2023-04-01T15:46:17;4.37;;;4.00;;
5776;SDS011;2914;42.668;23.346;2023-04-01T15:49:01;8.30;;;4.97;;
5776;SDS011;2914;42.668;23.346;2023-04-01T15:54:53;24.17;;;1.70;;
5776;SDS011;2914;42.668;23.346;2023-04-01T15:57:29;3.83;;;1.50;;
5776;SDS011;2914;42.668;23.346;2023-04-01T16:00:23;1.53;;;1.43;;
5776;SDS011;2914;42.668;23.346;2023-04-01T16:03:13;12.43;;;2.57;;
5776;SDS011;2914;42.668;23.346;2023-04-01T16:05:57;2.33;;;2.23;;
5776;SDS011;2914;42.668;23.346;2023-04-01T16:11:28;4.23;;;2.93;;
5776;SDS011;2914;42.668;23.346;2023-04-01T16:14:07;4.00;;;3.70;;
5776;SDS011;2914;42.668;23.346;2023-04-01T16:16:48;3.80;;;3.37;;
5776;SDS011;2914;42.668;23.346;2023-04-01T16:19:26;4.70;;;3.47;;
5776;SDS011;2914;42.668;23.346;2023-04-01T16:22:07;3.30;;;3.20;;
5776;SDS011;2914;42.668;23.346;2023-04-01T16:24:40;4.53;;;4.13;;
5776;SDS011;2914;42.668;23.346;2023-04-01T16:27:13;3.47;;;3.27;;
5776;SDS011;2914;42.668;23.346;2023-04-01T16:29:46;6.60;;;4.97;;
5776;SDS011;2914;42.668;23.346;2023-04-01T16:32:21;4.50;;;4.10;;
5776;SDS011;2914;42.668;23.346;2023-04-01T16:35:01;4.40;;;4.00;;
5776;SDS011;2914;42.668;23.346;2023-04-01T16:37:52;3.17;;;2.97;;
5776;SDS011;2914;42.668;23.346;2023-04-01T16:40:32;4.10;;;3.70;;
5776;SDS011;2914;42.668;23.346;2023-04-01T16:43:10;4.63;;;4.20;;
5776;SDS011;2914;42.668;23.346;2023-04-01T16:45:54;3.10;;;2.97;;
5776;SDS011;2914;42.668;23.346;2023-04-01T16:48:51;2.90;;;2.70;;
5776;SDS011;2914;42.668;23.346;2023-04-01T16:51:27;5.70;;;3.50;;
5776;SDS011;2914;42.668;23.346;2023-04-01T16:54:06;2.60;;;2.50;;
5776;SDS011;2914;42.668;23.346;2023-04-01T16:56:41;3.53;;;2.93;;
5776;SDS011;2914;42.668;23.346;2023-04-01T16:59:17;2.90;;;2.80;;
5776;SDS011;2914;42.668;23.346;2023-04-01T17:01:51;3.30;;;2.53;;
5776;SDS011;2914;42.668;23.346;2023-04-01T17:04:25;2.90;;;2.70;;
5776;SDS011;2914;42.668;23.346;2023-04-01T17:07:00;3.17;;;2.97;;
5776;SDS011;2914;42.668;23.346;2023-04-01T17:09:36;2.20;;;2.10;;
5776;SDS011;2914;42.668;23.346;2023-04-01T17:12:15;2.37;;;2.27;;
5776;SDS011;2914;42.668;23.346;2023-04-01T17:14:48;2.10;;;2.00;;
5776;SDS011;2914;42.668;23.346;2023-04-01T17:17:23;2.40;;;2.30;;
5776;SDS011;2914;42.668;23.346;2023-04-01T17:20:02;1.90;;;1.80;;
5776;SDS011;2914;42.668;23.346;2023-04-01T17:22:44;1.90;;;1.80;;
5776;SDS011;2914;42.668;23.346;2023-04-01T17:25:20;2.60;;;2.10;;
5776;SDS011;2914;42.668;23.346;2023-04-01T17:28:19;2.00;;;1.90;;
5776;SDS011;2914;42.668;23.346;2023-04-01T17:30:55;2.20;;;2.10;;
5776;SDS011;2914;42.668;23.346;2023-04-01T17:33:41;1.90;;;1.80;;
5776;SDS011;2914;42.668;23.346;2023-04-01T17:36:18;1.90;;;1.80;;
5776;SDS011;2914;42.668;23.346;2023-04-01T17:38:56;2.57;;;2.37;;
5776;SDS011;2914;42.668;23.346;2023-04-01T17:44:12;4.87;;;1.70;;